createdAt,value
2019-03-11T00:00:23.442Z,39.58
2019-03-11T00:02:53.323Z,41.08
2019-03-11T00:05:22.751Z,34.08
2019-03-11T00:07:52.231Z,32.38
2019-03-11T00:10:22.139Z,27.60
2019-03-11T00:12:51.605Z,24.92
2019-03-11T00:15:21.335Z,21.35
2019-03-11T00:17:50.807Z,23.12
2019-03-11T00:20:20.293Z,15.73
2019-03-11T00:22:49.994Z,19.52
2019-03-11T00:25:19.459Z,17.20
2019-03-11T00:27:48.850Z,17.62
2019-03-11T00:30:18.285Z,17.75
2019-03-11T00:32:47.709Z,25.72
2019-03-11T00:35:17.135Z,18.10
2019-03-11T00:37:46.549Z,20.92
2019-03-11T00:40:16.092Z,17.02
2019-03-11T00:42:45.786Z,15.98
2019-03-11T00:45:15.725Z,15.40
2019-03-11T00:47:45.063Z,16.48
2019-03-11T00:50:15.315Z,15.72
2019-03-11T00:52:44.757Z,16.65
2019-03-11T00:55:14.394Z,13.78
2019-03-11T00:57:43.779Z,14.87
2019-03-11T01:00:27.541Z,15.78
2019-03-11T01:02:57.261Z,15.30
2019-03-11T01:05:26.687Z,15.18
2019-03-11T01:07:56.105Z,15.58
2019-03-11T01:10:25.501Z,13.45
2019-03-11T01:12:54.944Z,15.40
2019-03-11T01:15:24.398Z,16.70
2019-03-11T01:17:53.810Z,18.23
2019-03-11T01:20:23.245Z,17.57
2019-03-11T01:22:52.719Z,15.58
2019-03-11T01:25:22.082Z,15.50
2019-03-11T01:27:51.520Z,15.00
2019-03-11T01:30:20.942Z,15.00
2019-03-11T01:32:50.324Z,14.47
2019-03-11T01:35:19.755Z,13.32
2019-03-11T01:37:49.148Z,13.32
2019-03-11T01:40:18.641Z,12.93
2019-03-11T01:42:48.034Z,12.98
2019-03-11T01:45:17.601Z,12.23
2019-03-11T01:47:47.292Z,12.65
2019-03-11T01:50:16.824Z,11.50
2019-03-11T01:52:46.340Z,13.43
2019-03-11T01:55:15.782Z,12.53
2019-03-11T01:57:45.234Z,13.50
2019-03-11T02:00:15.450Z,11.57
2019-03-11T02:02:44.908Z,14.93
2019-03-11T02:05:14.323Z,11.22
2019-03-11T02:07:43.714Z,11.22
2019-03-11T02:10:13.960Z,9.90
2019-03-11T02:12:43.366Z,9.75
2019-03-11T02:15:13.934Z,12.15
2019-03-11T02:17:43.390Z,10.80
2019-03-11T02:20:14.015Z,9.00
2019-03-11T02:22:43.452Z,8.68
2019-03-11T02:25:13.396Z,8.85
2019-03-11T02:27:42.832Z,10.13
2019-03-11T02:30:12.972Z,11.45
2019-03-11T02:32:42.391Z,10.70
2019-03-11T02:35:12.410Z,12.47
2019-03-11T02:37:41.864Z,15.10
2019-03-11T02:40:12.205Z,11.25
2019-03-11T02:42:41.608Z,13.65
2019-03-11T02:45:11.035Z,18.00
2019-03-11T02:47:40.446Z,11.53
2019-03-11T02:50:09.969Z,17.17
2019-03-11T02:52:39.425Z,14.90
2019-03-11T02:55:09.103Z,14.13
2019-03-11T02:57:38.506Z,14.13
2019-03-11T03:00:09.127Z,15.45
2019-03-11T03:02:48.263Z,15.50
2019-03-11T03:05:30.807Z,13.40
2019-03-11T03:08:00.306Z,14.35
2019-03-11T03:10:29.709Z,14.00
2019-03-11T03:12:59.106Z,13.05
2019-03-11T03:15:28.518Z,12.80
2019-03-11T03:17:57.947Z,10.80
2019-03-11T03:20:27.364Z,12.25
2019-03-11T03:22:56.770Z,11.13
2019-03-11T03:25:33.745Z,13.53
2019-03-11T03:27:57.367Z,13.63
2019-03-11T03:30:27.002Z,15.80
2019-03-11T03:32:56.427Z,14.87
2019-03-11T03:35:25.850Z,15.30
2019-03-11T03:37:55.246Z,17.20
2019-03-11T03:40:24.687Z,19.42
2019-03-11T03:42:54.478Z,21.07
2019-03-11T03:45:28.663Z,21.05
2019-03-11T03:47:58.281Z,20.60
2019-03-11T03:50:28.495Z,21.93
2019-03-11T03:52:57.950Z,19.90
2019-03-11T03:55:27.378Z,19.52
2019-03-11T03:57:57.153Z,20.40
2019-03-11T04:00:26.554Z,18.90
2019-03-11T04:02:55.983Z,19.25
2019-03-11T04:05:25.511Z,22.22
2019-03-11T04:07:55.089Z,23.57
2019-03-11T04:10:24.525Z,18.70
2019-03-11T04:12:53.987Z,22.80
2019-03-11T04:15:23.507Z,23.70
2019-03-11T04:17:53.009Z,24.12
2019-03-11T04:20:22.582Z,21.60
2019-03-11T04:22:52.323Z,20.17
2019-03-11T04:25:21.772Z,21.97
2019-03-11T04:27:51.240Z,24.65
2019-03-11T04:30:22.318Z,23.10
2019-03-11T04:32:51.753Z,24.52
2019-03-11T04:35:21.157Z,21.93
2019-03-11T04:37:50.505Z,23.05
2019-03-11T04:40:19.928Z,21.80
2019-03-11T04:42:49.331Z,18.73
2019-03-11T04:45:19.129Z,21.00
2019-03-11T04:47:48.523Z,21.75
2019-03-11T04:50:17.988Z,21.77
2019-03-11T04:52:47.576Z,27.75
2019-03-11T04:55:17.727Z,18.92
2019-03-11T04:57:50.212Z,19.87
2019-03-11T05:00:24.784Z,19.95
2019-03-11T05:02:54.186Z,20.88
2019-03-11T05:05:23.672Z,28.23
2019-03-11T05:07:53.126Z,28.60
2019-03-11T05:10:22.553Z,21.23
2019-03-11T05:12:52.002Z,18.93
2019-03-11T05:15:21.440Z,20.65
2019-03-11T05:17:50.944Z,18.73
2019-03-11T05:20:20.584Z,21.02
2019-03-11T05:22:50.080Z,15.03
2019-03-11T05:25:19.500Z,18.62
2019-03-11T05:27:48.966Z,17.70
2019-03-11T05:30:18.476Z,19.55
2019-03-11T05:32:47.908Z,24.33
2019-03-11T05:35:17.439Z,17.48
2019-03-11T05:37:46.874Z,12.82
2019-03-11T05:40:16.295Z,20.30
2019-03-11T05:42:45.885Z,20.48
2019-03-11T05:45:15.508Z,17.42
2019-03-11T05:47:44.922Z,14.28
2019-03-11T05:50:14.690Z,19.87
2019-03-11T05:52:44.183Z,19.67
2019-03-11T05:55:13.872Z,16.80
2019-03-11T05:57:43.340Z,14.35
2019-03-11T06:00:15.937Z,15.43
2019-03-11T06:02:45.422Z,18.00
2019-03-11T06:05:15.059Z,16.55
2019-03-11T06:07:44.549Z,20.80
2019-03-11T06:10:14.486Z,17.77
2019-03-11T06:12:43.945Z,18.55
2019-03-11T06:15:13.565Z,14.00
2019-03-11T06:17:43.419Z,12.93
2019-03-11T06:20:36.893Z,16.50
2019-03-11T06:23:07.748Z,15.55
2019-03-11T06:25:37.162Z,17.60
2019-03-11T06:28:05.988Z,10.13
2019-03-11T06:30:35.530Z,14.50
2019-03-11T06:33:05.012Z,15.18
2019-03-11T06:35:34.474Z,20.07
2019-03-11T06:38:03.897Z,14.10
2019-03-11T06:40:33.594Z,13.63
2019-03-11T06:43:02.997Z,15.45
2019-03-11T06:45:32.579Z,14.90
2019-03-11T06:48:02.038Z,12.07
2019-03-11T06:50:31.437Z,14.03
2019-03-11T06:53:00.867Z,15.75
2019-03-11T06:55:30.371Z,12.33
2019-03-11T06:57:59.797Z,14.35
2019-03-11T07:00:29.183Z,12.03
2019-03-11T07:02:58.677Z,12.85
2019-03-11T07:05:28.051Z,14.75
2019-03-11T07:07:57.536Z,16.97
2019-03-11T07:10:26.935Z,13.65
2019-03-11T07:12:56.371Z,13.45
2019-03-11T07:15:25.723Z,11.48
2019-03-11T07:17:55.130Z,12.73
2019-03-11T07:20:24.614Z,15.70
2019-03-11T07:22:54.070Z,12.78
2019-03-11T07:25:23.479Z,16.67
2019-03-11T07:27:53.084Z,14.23
2019-03-11T07:30:22.436Z,13.35
2019-03-11T07:32:51.925Z,18.75
2019-03-11T07:35:21.408Z,14.85
2019-03-11T07:37:50.927Z,6.73
2019-03-11T07:40:29.145Z,3.35
2019-03-11T07:42:51.576Z,4.77
2019-03-11T07:45:21.032Z,6.75
2019-03-11T07:47:50.535Z,3.87
2019-03-11T07:50:19.977Z,2.03
2019-03-11T07:52:49.351Z,4.78
2019-03-11T07:55:18.913Z,5.00
2019-03-11T07:57:48.326Z,5.08
2019-03-11T08:00:17.788Z,2.25
2019-03-11T08:02:47.446Z,4.22
2019-03-11T08:05:16.860Z,4.65
2019-03-11T08:07:46.331Z,6.15
2019-03-11T08:10:15.866Z,5.00
2019-03-11T08:12:45.344Z,6.30
2019-03-11T08:15:14.807Z,6.43
2019-03-11T08:17:44.286Z,6.90
2019-03-11T08:20:13.694Z,6.28
2019-03-11T08:22:43.241Z,6.70
2019-03-11T08:25:13.110Z,3.80
2019-03-11T08:27:42.669Z,5.58
2019-03-11T08:30:11.709Z,8.10
2019-03-11T08:32:41.104Z,8.35
2019-03-11T08:35:10.564Z,7.50
2019-03-11T08:37:39.960Z,7.67
2019-03-11T08:40:10.483Z,6.80
2019-03-11T08:42:39.873Z,7.10
2019-03-11T08:45:10.265Z,4.55
2019-03-11T08:47:39.679Z,10.40
2019-03-11T08:50:10.059Z,7.17
2019-03-11T08:52:39.444Z,6.40
2019-03-11T08:55:08.767Z,9.13
2019-03-11T08:57:40.385Z,4.05
2019-03-11T09:00:09.104Z,8.28
2019-03-11T09:02:38.061Z,5.80
2019-03-11T09:05:08.733Z,4.47
2019-03-11T09:07:38.120Z,6.20
2019-03-11T09:10:09.589Z,5.08
2019-03-11T09:12:39.154Z,7.25
2019-03-11T09:15:10.533Z,8.80
2019-03-11T09:17:39.921Z,7.50
2019-03-11T09:20:09.845Z,4.50
2019-03-11T09:22:39.426Z,5.12
2019-03-11T09:25:11.314Z,8.90
2019-03-11T09:27:40.276Z,4.50
2019-03-11T09:30:10.103Z,6.50
2019-03-11T09:32:39.577Z,4.10
2019-03-11T09:35:09.113Z,5.30
2019-03-11T09:37:38.521Z,3.22
2019-03-11T09:40:09.266Z,4.95
2019-03-11T09:42:38.761Z,3.50
2019-03-11T09:45:09.395Z,5.90
2019-03-11T09:47:38.833Z,3.27
2019-03-11T09:50:08.579Z,5.65
2019-03-11T09:52:38.003Z,4.72
2019-03-11T09:55:08.767Z,3.95
2019-03-11T09:57:38.228Z,6.78
2019-03-11T10:00:09.262Z,5.60
2019-03-11T10:02:38.684Z,6.80
2019-03-11T10:05:08.913Z,4.50
2019-03-11T10:07:38.333Z,6.22
2019-03-11T10:10:09.422Z,5.20
2019-03-11T10:12:38.862Z,6.70
2019-03-11T10:15:09.962Z,4.92
2019-03-11T10:17:39.453Z,3.83
2019-03-11T10:20:09.544Z,3.63
2019-03-11T10:22:38.331Z,3.73
2019-03-11T10:25:08.504Z,4.00
2019-03-11T10:27:37.996Z,3.90
2019-03-11T10:30:07.323Z,4.58
2019-03-11T10:32:36.782Z,4.20
2019-03-11T10:35:26.806Z,4.85
2019-03-11T10:37:38.782Z,4.35
2019-03-11T10:40:10.604Z,3.35
2019-03-11T10:42:40.008Z,4.10
2019-03-11T10:45:09.811Z,5.47
2019-03-11T10:47:39.488Z,6.62
2019-03-11T10:50:10.018Z,3.75
2019-03-11T10:52:39.450Z,8.60
2019-03-11T10:55:10.382Z,3.17
2019-03-11T10:57:39.838Z,3.80
2019-03-11T11:00:12.648Z,4.37
2019-03-11T11:02:41.588Z,3.08
2019-03-11T11:05:12.381Z,2.70
2019-03-11T11:07:42.180Z,3.75
2019-03-11T11:10:12.240Z,5.22
2019-03-11T11:12:41.055Z,4.30
2019-03-11T11:15:16.484Z,2.67
2019-03-11T11:17:45.656Z,4.40
2019-03-11T11:20:14.802Z,5.28
2019-03-11T11:22:44.458Z,6.22
2019-03-11T11:25:16.610Z,4.58
2019-03-11T11:27:46.109Z,5.92
2019-03-11T11:30:17.949Z,2.70
2019-03-11T11:32:46.862Z,4.10
2019-03-11T11:35:16.678Z,4.87
2019-03-11T11:37:45.547Z,6.85
2019-03-11T11:40:17.553Z,4.62
2019-03-11T11:42:47.042Z,6.72
2019-03-11T11:45:16.478Z,5.25
2019-03-11T11:47:46.290Z,4.97
2019-03-11T11:50:17.472Z,4.03
2019-03-11T11:52:47.004Z,4.60
2019-03-11T11:55:17.133Z,4.33
2019-03-11T11:57:45.956Z,5.47
2019-03-11T12:00:18.921Z,4.42
2019-03-11T12:02:48.652Z,4.80
2019-03-11T12:05:18.411Z,4.05
2019-03-11T12:07:48.122Z,5.12
2019-03-11T12:10:18.415Z,4.37
2019-03-11T12:12:48.247Z,5.90
2019-03-11T12:15:17.823Z,6.20
2019-03-11T12:17:47.331Z,6.60
2019-03-11T12:20:17.186Z,4.37
2019-03-11T12:22:46.630Z,7.60
2019-03-11T12:25:17.096Z,7.17
2019-03-11T12:27:53.838Z,7.75
2019-03-11T12:30:22.215Z,5.80
2019-03-11T12:32:51.784Z,5.83
2019-03-11T12:35:21.231Z,7.75
2019-03-11T12:37:50.664Z,7.10
2019-03-11T12:40:20.298Z,6.05
2019-03-11T12:42:49.726Z,5.85
2019-03-11T12:45:18.595Z,5.08
2019-03-11T12:47:47.497Z,5.58
2019-03-11T12:50:18.099Z,7.83
2019-03-11T12:52:47.276Z,6.17
2019-03-11T12:55:16.782Z,6.35
2019-03-11T12:57:46.216Z,8.43
2019-03-11T13:00:17.295Z,7.35
2019-03-11T13:02:46.808Z,7.30
2019-03-11T13:05:16.070Z,7.35
2019-03-11T13:07:45.839Z,6.80
2019-03-11T13:10:16.983Z,9.25
2019-03-11T13:12:47.093Z,7.65
2019-03-11T13:15:17.402Z,7.85
2019-03-11T13:17:46.911Z,10.32
2019-03-11T13:20:37.213Z,9.53
2019-03-11T13:23:06.694Z,5.83
2019-03-11T13:25:36.163Z,6.00
2019-03-11T13:28:05.893Z,6.80
2019-03-11T13:30:35.279Z,8.95
2019-03-11T13:33:04.731Z,7.85
2019-03-11T13:35:34.461Z,6.83
2019-03-11T13:38:04.015Z,8.73
2019-03-11T13:40:33.655Z,8.65
2019-03-11T13:43:03.131Z,6.60
2019-03-11T13:45:32.638Z,7.65
2019-03-11T13:48:02.045Z,9.25
2019-03-11T13:50:31.631Z,10.18
2019-03-11T13:53:01.047Z,7.00
2019-03-11T13:55:30.502Z,10.68
2019-03-11T13:57:59.966Z,10.80
2019-03-11T14:00:29.757Z,10.32
2019-03-11T14:02:59.134Z,11.40
2019-03-11T14:05:28.850Z,8.28
2019-03-11T14:07:57.666Z,8.85
2019-03-11T14:10:27.508Z,8.00
2019-03-11T14:12:56.966Z,7.85
2019-03-11T14:15:25.815Z,9.15
2019-03-11T14:17:54.765Z,7.03
2019-03-11T14:20:24.299Z,6.85
2019-03-11T14:22:53.771Z,7.23
2019-03-11T14:25:23.221Z,9.53
2019-03-11T14:27:53.236Z,10.80
2019-03-11T14:30:22.681Z,6.90
2019-03-11T14:32:52.738Z,5.65
2019-03-11T14:35:22.478Z,7.53
2019-03-11T14:37:51.958Z,8.53
2019-03-11T14:40:21.413Z,10.53
2019-03-11T14:42:50.874Z,7.37
2019-03-11T14:45:20.550Z,12.25
2019-03-11T14:47:49.961Z,7.92
2019-03-11T14:50:19.421Z,10.25
2019-03-11T14:52:48.988Z,9.68
2019-03-11T14:55:18.488Z,8.85
2019-03-11T14:57:47.960Z,9.93
2019-03-11T15:00:18.555Z,7.10
2019-03-11T15:02:48.952Z,9.13
2019-03-11T15:05:18.696Z,9.60
2019-03-11T15:07:48.172Z,8.63
2019-03-11T15:10:18.303Z,8.78
2019-03-11T15:12:47.765Z,12.98
2019-03-11T15:15:17.944Z,13.18
2019-03-11T15:17:47.376Z,10.85
2019-03-11T15:20:16.902Z,9.00
2019-03-11T15:22:46.446Z,11.48
2019-03-11T15:25:16.713Z,13.40
2019-03-11T15:27:46.135Z,12.43
2019-03-11T15:30:17.088Z,10.68
2019-03-11T15:32:46.583Z,12.50
2019-03-11T15:35:16.133Z,15.48
2019-03-11T15:37:45.898Z,11.30
2019-03-11T15:40:15.310Z,11.17
2019-03-11T15:42:44.916Z,14.35
2019-03-11T15:45:14.956Z,13.68
2019-03-11T15:47:44.466Z,16.17
2019-03-11T15:50:16.387Z,9.13
2019-03-11T15:52:45.913Z,13.90
2019-03-11T15:55:16.002Z,10.33
2019-03-11T15:57:45.648Z,18.62
2019-03-11T16:00:17.614Z,16.33
2019-03-11T16:02:47.061Z,7.33
2019-03-11T16:05:17.952Z,11.85
2019-03-11T16:07:47.522Z,14.38
2019-03-11T16:10:17.535Z,14.78
2019-03-11T16:12:47.226Z,13.75
2019-03-11T16:15:17.219Z,15.70
2019-03-11T16:17:46.974Z,14.63
2019-03-11T16:20:17.622Z,16.17
2019-03-11T16:22:47.406Z,14.10
2019-03-11T16:25:16.866Z,13.03
2019-03-11T16:27:46.445Z,14.10
2019-03-11T16:30:18.087Z,12.43
2019-03-11T16:32:58.393Z,17.13
2019-03-11T16:35:19.557Z,12.35
2019-03-11T16:37:49.048Z,13.40
2019-03-11T16:40:18.826Z,12.65
2019-03-11T16:42:48.279Z,16.37
2019-03-11T16:45:18.867Z,17.70
2019-03-11T16:47:48.346Z,16.07
2019-03-11T16:50:17.974Z,14.65
2019-03-11T16:52:47.469Z,17.57
2019-03-11T16:55:18.607Z,16.93
2019-03-11T16:57:48.072Z,23.22
2019-03-11T17:00:20.340Z,21.33
2019-03-11T17:02:49.846Z,22.02
2019-03-11T17:05:19.465Z,20.40
2019-03-11T17:07:48.897Z,20.43
2019-03-11T17:10:18.391Z,22.65
2019-03-11T17:12:47.838Z,22.60
2019-03-11T17:15:17.623Z,22.23
2019-03-11T17:17:47.057Z,25.13
2019-03-11T17:20:16.607Z,27.25
2019-03-11T17:22:46.217Z,25.65
2019-03-11T17:25:22.364Z,25.77
2019-03-11T17:27:51.762Z,26.90
2019-03-11T17:30:21.224Z,24.43
2019-03-11T17:32:50.609Z,22.73
2019-03-11T17:35:20.132Z,22.37
2019-03-11T17:37:49.538Z,24.27
2019-03-11T17:40:19.510Z,22.77
2019-03-11T17:42:49.027Z,24.37
2019-03-11T17:45:18.510Z,24.12
2019-03-11T17:47:48.248Z,26.23
2019-03-11T17:50:17.785Z,26.68
2019-03-11T17:52:47.588Z,28.45
2019-03-11T17:55:17.187Z,28.92
2019-03-11T17:57:46.928Z,31.70
2019-03-11T18:00:21.107Z,33.33
2019-03-11T18:02:51.161Z,32.17
2019-03-11T18:05:20.753Z,31.10
2019-03-11T18:07:50.277Z,34.43
2019-03-11T18:10:19.650Z,33.02
2019-03-11T18:12:49.166Z,29.25
2019-03-11T18:15:18.684Z,28.73
2019-03-11T18:17:48.140Z,31.05
2019-03-11T18:20:17.776Z,27.87
2019-03-11T18:22:47.235Z,29.70
2019-03-11T18:25:16.891Z,30.75
2019-03-11T18:27:46.348Z,30.73
2019-03-11T18:30:19.230Z,29.98
2019-03-11T18:32:48.928Z,33.83
2019-03-11T18:35:18.405Z,32.40
2019-03-11T18:37:47.791Z,31.17
2019-03-11T18:40:17.348Z,32.75
2019-03-11T18:42:47.063Z,39.35
2019-03-11T18:45:16.793Z,41.45
2019-03-11T18:47:46.354Z,44.60
2019-03-11T18:50:15.886Z,47.40
2019-03-11T18:52:45.376Z,48.80
2019-03-11T18:55:15.608Z,43.30
2019-03-11T18:57:45.173Z,46.15
2019-03-11T19:00:17.069Z,45.50
2019-03-11T19:02:46.501Z,48.28
2019-03-11T19:05:16.380Z,46.10
2019-03-11T19:07:46.319Z,47.20
2019-03-11T19:10:16.934Z,44.20
2019-03-11T19:12:46.560Z,45.90
2019-03-11T19:15:17.019Z,38.67
2019-03-11T19:17:46.557Z,38.58
2019-03-11T19:20:17.392Z,32.20
2019-03-11T19:22:47.181Z,36.70
2019-03-11T19:25:17.025Z,40.95
2019-03-11T19:27:47.242Z,38.05
2019-03-11T19:30:18.614Z,40.78
2019-03-11T19:32:48.091Z,35.75
2019-03-11T19:35:18.706Z,40.00
2019-03-11T19:37:48.238Z,44.63
2019-03-11T19:40:18.406Z,38.63
2019-03-11T19:42:47.866Z,37.55
2019-03-11T19:45:17.621Z,37.15
2019-03-11T19:47:47.103Z,33.83
2019-03-11T19:50:17.355Z,121.72
2019-03-11T19:52:57.689Z,38.13
2019-03-11T19:55:18.159Z,37.98
2019-03-11T19:57:47.489Z,32.23
2019-03-11T20:00:18.378Z,35.98
2019-03-11T20:02:48.218Z,34.40
2019-03-11T20:05:19.044Z,39.60
2019-03-11T20:07:48.592Z,39.03
2019-03-11T20:10:18.081Z,40.38
2019-03-11T20:12:47.539Z,38.23
2019-03-11T20:15:17.026Z,34.13
2019-03-11T20:17:46.857Z,38.40
2019-03-11T20:20:16.606Z,36.03
2019-03-11T20:22:46.103Z,41.60
2019-03-11T20:25:18.557Z,37.23
2019-03-11T20:27:48.131Z,40.25
2019-03-11T20:30:19.451Z,42.25
2019-03-11T20:32:48.889Z,42.17
2019-03-11T20:35:18.383Z,39.05
2019-03-11T20:37:47.920Z,39.83
2019-03-11T20:40:17.490Z,44.08
2019-03-11T20:42:47.056Z,49.80
2019-03-11T20:45:16.474Z,47.62
2019-03-11T20:47:45.940Z,48.73
2019-03-11T20:50:15.494Z,46.40
2019-03-11T20:52:45.094Z,43.70
2019-03-11T20:55:15.655Z,48.87
2019-03-11T20:57:45.075Z,46.20
2019-03-11T21:00:16.784Z,50.48
2019-03-11T21:02:46.535Z,51.10
2019-03-11T21:05:17.042Z,60.85
2019-03-11T21:07:46.631Z,50.63
2019-03-11T21:10:16.516Z,56.90
2019-03-11T21:12:45.875Z,56.20
2019-03-11T21:15:15.533Z,54.20
2019-03-11T21:17:45.023Z,54.55
2019-03-11T21:20:14.633Z,56.30
2019-03-11T21:22:44.114Z,59.10
2019-03-11T21:25:15.356Z,61.50
2019-03-11T21:27:44.899Z,61.70
2019-03-11T21:30:16.684Z,59.73
2019-03-11T21:32:46.103Z,69.87
2019-03-11T21:35:15.782Z,63.80
2019-03-11T21:37:45.466Z,61.60
2019-03-11T21:40:16.118Z,62.48
2019-03-11T21:42:46.106Z,65.55
2019-03-11T21:45:15.700Z,63.83
2019-03-11T21:47:45.245Z,65.97
2019-03-11T21:50:19.394Z,66.35
2019-03-11T21:52:48.958Z,68.75
2019-03-11T21:55:18.441Z,65.57
2019-03-11T21:57:47.886Z,67.30
2019-03-11T22:00:33.020Z,62.83
2019-03-11T22:02:51.586Z,65.37
2019-03-11T22:05:21.013Z,71.65
2019-03-11T22:07:50.525Z,63.23
2019-03-11T22:10:20.369Z,66.50
2019-03-11T22:12:49.844Z,58.90
2019-03-11T22:15:19.408Z,64.07
2019-03-11T22:17:48.866Z,68.57
2019-03-11T22:20:18.804Z,60.60
2019-03-11T22:22:48.218Z,61.70
2019-03-11T22:25:17.645Z,62.50
2019-03-11T22:27:47.112Z,76.95
2019-03-11T22:30:20.368Z,63.33
2019-03-11T22:32:49.848Z,65.15
2019-03-11T22:35:19.372Z,65.95
2019-03-11T22:37:48.837Z,60.78
2019-03-11T22:40:18.426Z,59.50
2019-03-11T22:42:47.896Z,63.10
2019-03-11T22:45:19.778Z,56.33
2019-03-11T22:47:49.634Z,60.60
2019-03-11T22:50:19.156Z,64.62
2019-03-11T22:52:48.597Z,64.20
2019-03-11T22:55:18.735Z,60.12
2019-03-11T22:57:48.298Z,56.40
2019-03-11T23:00:26.837Z,55.52
2019-03-11T23:02:56.306Z,57.80
2019-03-11T23:05:25.761Z,64.12
2019-03-11T23:07:55.146Z,61.25
2019-03-11T23:10:24.620Z,58.92
2019-03-11T23:12:54.053Z,64.30
2019-03-11T23:15:23.461Z,56.25
2019-03-11T23:17:52.889Z,59.25
2019-03-11T23:20:22.344Z,60.05
2019-03-11T23:22:51.792Z,56.73
2019-03-11T23:25:21.189Z,53.92
2019-03-11T23:27:50.641Z,57.17
2019-03-11T23:30:20.140Z,54.45
2019-03-11T23:32:49.528Z,51.20
2019-03-11T23:35:18.947Z,54.50
2019-03-11T23:37:48.400Z,48.23
2019-03-11T23:40:17.850Z,47.53
2019-03-11T23:42:47.263Z,46.80
2019-03-11T23:45:16.706Z,43.80
2019-03-11T23:47:46.243Z,45.20
2019-03-11T23:50:19.002Z,42.20
2019-03-11T23:52:46.793Z,36.83
2019-03-11T23:55:16.191Z,38.33
2019-03-11T23:57:45.734Z,40.98
